sensor_id;sensor_type;location;lat;lon;timestamp;P1;durP1;ratioP1;P2;durP2;ratioP2
75038;SDS011;63609;49.992;14.512;2022-11-25T00:01:19;8.00;;;4.25;;
75038;SDS011;63609;49.992;14.512;2022-11-25T00:03:52;9.25;;;4.30;;
75038;SDS011;63609;49.992;14.512;2022-11-25T00:06:24;13.15;;;5.55;;
75038;SDS011;63609;49.992;14.512;2022-11-25T00:08:58;10.65;;;4.22;;
75038;SDS011;63609;49.992;14.512;2022-11-25T00:11:26;11.35;;;5.13;;
75038;SDS011;63609;49.992;14.512;2022-11-25T00:13:53;11.00;;;5.13;;
75038;SDS011;63609;49.992;14.512;2022-11-25T00:16:22;12.52;;;5.70;;
75038;SDS011;63609;49.992;14.512;2022-11-25T00:18:50;9.60;;;4.93;;
75038;SDS011;63609;49.992;14.512;2022-11-25T00:21:20;11.25;;;5.32;;
75038;SDS011;63609;49.992;14.512;2022-11-25T00:24:08;12.45;;;5.55;;
75038;SDS011;63609;49.992;14.512;2022-11-25T00:26:39;9.95;;;5.40;;
75038;SDS011;63609;49.992;14.512;2022-11-25T00:31:34;8.32;;;4.32;;
75038;SDS011;63609;49.992;14.512;2022-11-25T00:34:03;13.57;;;5.35;;
75038;SDS011;63609;49.992;14.512;2022-11-25T00:36:31;12.65;;;5.65;;
75038;SDS011;63609;49.992;14.512;2022-11-25T00:39:00;9.20;;;4.70;;
75038;SDS011;63609;49.992;14.512;2022-11-25T00:41:30;15.20;;;6.82;;
75038;SDS011;63609;49.992;14.512;2022-11-25T00:44:16;13.55;;;5.63;;
75038;SDS011;63609;49.992;14.512;2022-11-25T00:52:01;11.48;;;6.13;;
75038;SDS011;63609;49.992;14.512;2022-11-25T00:54:29;17.42;;;6.03;;
75038;SDS011;63609;49.992;14.512;2022-11-25T00:56:56;10.60;;;5.47;;
75038;SDS011;63609;49.992;14.512;2022-11-25T00:59:23;14.13;;;6.47;;
75038;SDS011;63609;49.992;14.512;2022-11-25T01:01:50;10.60;;;5.60;;
75038;SDS011;63609;49.992;14.512;2022-11-25T01:04:17;11.75;;;5.38;;
75038;SDS011;63609;49.992;14.512;2022-11-25T01:09:13;14.93;;;5.55;;
75038;SDS011;63609;49.992;14.512;2022-11-25T01:11:40;13.52;;;6.03;;
75038;SDS011;63609;49.992;14.512;2022-11-25T01:14:07;14.90;;;5.40;;
75038;SDS011;63609;49.992;14.512;2022-11-25T01:19:07;11.18;;;4.78;;
75038;SDS011;63609;49.992;14.512;2022-11-25T01:21:33;11.43;;;5.25;;
75038;SDS011;63609;49.992;14.512;2022-11-25T01:24:01;14.70;;;5.90;;
75038;SDS011;63609;49.992;14.512;2022-11-25T01:26:33;11.23;;;5.80;;
75038;SDS011;63609;49.992;14.512;2022-11-25T01:29:02;13.32;;;6.30;;
75038;SDS011;63609;49.992;14.512;2022-11-25T01:31:33;10.32;;;5.57;;
75038;SDS011;63609;49.992;14.512;2022-11-25T01:34:02;13.15;;;6.10;;
75038;SDS011;63609;49.992;14.512;2022-11-25T01:36:33;12.00;;;5.97;;
75038;SDS011;63609;49.992;14.512;2022-11-25T01:39:01;12.25;;;6.40;;
75038;SDS011;63609;49.992;14.512;2022-11-25T01:41:30;11.75;;;5.63;;
75038;SDS011;63609;49.992;14.512;2022-11-25T01:44:05;10.55;;;5.78;;
75038;SDS011;63609;49.992;14.512;2022-11-25T01:46:57;12.55;;;5.30;;
75038;SDS011;63609;49.992;14.512;2022-11-25T01:57:42;11.00;;;5.35;;
75038;SDS011;63609;49.992;14.512;2022-11-25T02:00:14;12.50;;;5.60;;
75038;SDS011;63609;49.992;14.512;2022-11-25T02:02:45;10.68;;;5.18;;
75038;SDS011;63609;49.992;14.512;2022-11-25T02:05:15;10.52;;;4.53;;
75038;SDS011;63609;49.992;14.512;2022-11-25T02:07:47;9.63;;;4.75;;
75038;SDS011;63609;49.992;14.512;2022-11-25T02:10:20;8.13;;;4.63;;
75038;SDS011;63609;49.992;14.512;2022-11-25T02:12:51;9.52;;;5.07;;
75038;SDS011;63609;49.992;14.512;2022-11-25T02:15:18;7.68;;;4.28;;
75038;SDS011;63609;49.992;14.512;2022-11-25T02:17:46;7.43;;;4.32;;
75038;SDS011;63609;49.992;14.512;2022-11-25T02:20:16;8.02;;;4.43;;
75038;SDS011;63609;49.992;14.512;2022-11-25T02:23:07;9.93;;;4.78;;
75038;SDS011;63609;49.992;14.512;2022-11-25T02:25:42;8.52;;;4.45;;
75038;SDS011;63609;49.992;14.512;2022-11-25T02:28:14;11.48;;;5.18;;
75038;SDS011;63609;49.992;14.512;2022-11-25T02:30:43;11.27;;;4.95;;
75038;SDS011;63609;49.992;14.512;2022-11-25T02:33:11;12.77;;;5.85;;
75038;SDS011;63609;49.992;14.512;2022-11-25T02:35:44;16.40;;;6.30;;
75038;SDS011;63609;49.992;14.512;2022-11-25T02:38:18;11.13;;;5.30;;
75038;SDS011;63609;49.992;14.512;2022-11-25T02:41:11;11.32;;;5.30;;
75038;SDS011;63609;49.992;14.512;2022-11-25T02:43:44;10.38;;;5.50;;
75038;SDS011;63609;49.992;14.512;2022-11-25T02:46:11;12.68;;;6.03;;
75038;SDS011;63609;49.992;14.512;2022-11-25T02:48:48;12.57;;;5.53;;
75038;SDS011;63609;49.992;14.512;2022-11-25T02:54:08;14.48;;;5.57;;
75038;SDS011;63609;49.992;14.512;2022-11-25T02:56:35;10.55;;;4.47;;
75038;SDS011;63609;49.992;14.512;2022-11-25T02:59:02;9.18;;;4.47;;
75038;SDS011;63609;49.992;14.512;2022-11-25T03:01:30;10.13;;;4.88;;
75038;SDS011;63609;49.992;14.512;2022-11-25T03:03:58;10.48;;;4.78;;
75038;SDS011;63609;49.992;14.512;2022-11-25T03:06:26;14.02;;;5.65;;
75038;SDS011;63609;49.992;14.512;2022-11-25T03:08:53;10.77;;;4.60;;
75038;SDS011;63609;49.992;14.512;2022-11-25T03:11:20;11.63;;;4.90;;
75038;SDS011;63609;49.992;14.512;2022-11-25T03:14:07;13.55;;;5.00;;
75038;SDS011;63609;49.992;14.512;2022-11-25T03:19:02;8.95;;;4.22;;
75038;SDS011;63609;49.992;14.512;2022-11-25T03:21:29;12.15;;;5.20;;
75038;SDS011;63609;49.992;14.512;2022-11-25T03:23:56;10.75;;;4.30;;
75038;SDS011;63609;49.992;14.512;2022-11-25T03:28:51;10.77;;;4.47;;
75038;SDS011;63609;49.992;14.512;2022-11-25T03:31:18;10.93;;;4.10;;
75038;SDS011;63609;49.992;14.512;2022-11-25T03:33:45;9.23;;;4.15;;
75038;SDS011;63609;49.992;14.512;2022-11-25T03:36:12;6.78;;;4.80;;
75038;SDS011;63609;49.992;14.512;2022-11-25T03:38:39;8.73;;;4.43;;
75038;SDS011;63609;49.992;14.512;2022-11-25T03:41:06;8.02;;;4.28;;
75038;SDS011;63609;49.992;14.512;2022-11-25T03:46:01;9.38;;;4.05;;
75038;SDS011;63609;49.992;14.512;2022-11-25T03:48:29;11.00;;;4.15;;
75038;SDS011;63609;49.992;14.512;2022-11-25T03:50:56;9.38;;;3.85;;
75038;SDS011;63609;49.992;14.512;2022-11-25T03:53:24;12.45;;;4.20;;
75038;SDS011;63609;49.992;14.512;2022-11-25T03:55:51;8.02;;;3.45;;
75038;SDS011;63609;49.992;14.512;2022-11-25T03:58:20;6.15;;;4.10;;
75038;SDS011;63609;49.992;14.512;2022-11-25T04:00:49;9.07;;;4.68;;
75038;SDS011;63609;49.992;14.512;2022-11-25T04:03:16;8.48;;;4.32;;
75038;SDS011;63609;49.992;14.512;2022-11-25T04:08:10;7.45;;;3.92;;
75038;SDS011;63609;49.992;14.512;2022-11-25T04:10:38;9.35;;;4.32;;
75038;SDS011;63609;49.992;14.512;2022-11-25T04:13:05;8.18;;;4.60;;
75038;SDS011;63609;49.992;14.512;2022-11-25T04:15:36;9.85;;;4.53;;
75038;SDS011;63609;49.992;14.512;2022-11-25T04:18:04;11.60;;;4.57;;
75038;SDS011;63609;49.992;14.512;2022-11-25T04:20:32;7.10;;;4.03;;
75038;SDS011;63609;49.992;14.512;2022-11-25T04:23:02;11.15;;;5.00;;
75038;SDS011;63609;49.992;14.512;2022-11-25T04:25:34;8.98;;;4.30;;
75038;SDS011;63609;49.992;14.512;2022-11-25T04:28:11;9.02;;;4.28;;
75038;SDS011;63609;49.992;14.512;2022-11-25T04:30:39;9.25;;;4.15;;
75038;SDS011;63609;49.992;14.512;2022-11-25T04:33:06;9.98;;;4.13;;
75038;SDS011;63609;49.992;14.512;2022-11-25T04:35:34;8.45;;;4.53;;
75038;SDS011;63609;49.992;14.512;2022-11-25T04:38:01;10.35;;;4.47;;
75038;SDS011;63609;49.992;14.512;2022-11-25T04:40:29;14.93;;;5.18;;
75038;SDS011;63609;49.992;14.512;2022-11-25T04:43:09;9.35;;;4.13;;
75038;SDS011;63609;49.992;14.512;2022-11-25T04:45:41;8.90;;;4.38;;
75038;SDS011;63609;49.992;14.512;2022-11-25T04:48:28;9.27;;;4.20;;
75038;SDS011;63609;49.992;14.512;2022-11-25T04:50:55;9.23;;;4.47;;
75038;SDS011;63609;49.992;14.512;2022-11-25T04:53:22;6.85;;;4.10;;
75038;SDS011;63609;49.992;14.512;2022-11-25T04:55:49;9.07;;;4.55;;
75038;SDS011;63609;49.992;14.512;2022-11-25T04:58:17;11.73;;;4.63;;
75038;SDS011;63609;49.992;14.512;2022-11-25T05:01:04;10.90;;;4.80;;
75038;SDS011;63609;49.992;14.512;2022-11-25T05:03:32;10.50;;;4.50;;
75038;SDS011;63609;49.992;14.512;2022-11-25T05:06:03;9.07;;;4.75;;
75038;SDS011;63609;49.992;14.512;2022-11-25T05:08:31;11.07;;;4.82;;
75038;SDS011;63609;49.992;14.512;2022-11-25T05:10:59;10.90;;;4.43;;
75038;SDS011;63609;49.992;14.512;2022-11-25T05:15:52;9.70;;;4.35;;
75038;SDS011;63609;49.992;14.512;2022-11-25T05:18:21;11.35;;;4.38;;
75038;SDS011;63609;49.992;14.512;2022-11-25T05:20:48;9.93;;;4.63;;
75038;SDS011;63609;49.992;14.512;2022-11-25T05:23:19;15.27;;;5.03;;
75038;SDS011;63609;49.992;14.512;2022-11-25T05:25:47;9.82;;;4.90;;
75038;SDS011;63609;49.992;14.512;2022-11-25T05:28:26;10.05;;;4.75;;
75038;SDS011;63609;49.992;14.512;2022-11-25T05:30:53;7.68;;;3.90;;
75038;SDS011;63609;49.992;14.512;2022-11-25T05:33:20;10.90;;;5.15;;
75038;SDS011;63609;49.992;14.512;2022-11-25T05:35:57;11.00;;;4.80;;
75038;SDS011;63609;49.992;14.512;2022-11-25T05:38:30;13.13;;;4.82;;
75038;SDS011;63609;49.992;14.512;2022-11-25T05:41:05;12.80;;;4.63;;
75038;SDS011;63609;49.992;14.512;2022-11-25T05:43:43;11.15;;;4.82;;
75038;SDS011;63609;49.992;14.512;2022-11-25T05:46:13;16.00;;;5.78;;
75038;SDS011;63609;49.992;14.512;2022-11-25T05:48:51;12.10;;;5.03;;
75038;SDS011;63609;49.992;14.512;2022-11-25T05:51:19;11.75;;;5.03;;
75038;SDS011;63609;49.992;14.512;2022-11-25T05:53:48;9.38;;;4.93;;
75038;SDS011;63609;49.992;14.512;2022-11-25T05:56:17;9.23;;;4.88;;
75038;SDS011;63609;49.992;14.512;2022-11-25T05:59:19;12.48;;;5.22;;
75038;SDS011;63609;49.992;14.512;2022-11-25T06:02:05;11.48;;;4.70;;
75038;SDS011;63609;49.992;14.512;2022-11-25T06:04:35;11.93;;;5.80;;
75038;SDS011;63609;49.992;14.512;2022-11-25T06:07:02;12.70;;;5.65;;
75038;SDS011;63609;49.992;14.512;2022-11-25T06:09:29;11.90;;;4.97;;
75038;SDS011;63609;49.992;14.512;2022-11-25T06:11:56;9.75;;;4.88;;
75038;SDS011;63609;49.992;14.512;2022-11-25T06:14:24;11.45;;;5.03;;
75038;SDS011;63609;49.992;14.512;2022-11-25T06:16:51;8.82;;;4.85;;
75038;SDS011;63609;49.992;14.512;2022-11-25T06:19:27;10.02;;;5.07;;
75038;SDS011;63609;49.992;14.512;2022-11-25T06:21:56;9.63;;;5.57;;
75038;SDS011;63609;49.992;14.512;2022-11-25T06:24:25;7.88;;;3.33;;
75038;SDS011;63609;49.992;14.512;2022-11-25T06:26:58;12.00;;;5.20;;
75038;SDS011;63609;49.992;14.512;2022-11-25T06:29:25;8.63;;;5.00;;
75038;SDS011;63609;49.992;14.512;2022-11-25T06:31:53;8.82;;;4.47;;
75038;SDS011;63609;49.992;14.512;2022-11-25T06:34:46;7.88;;;4.35;;
75038;SDS011;63609;49.992;14.512;2022-11-25T06:37:26;10.50;;;4.95;;
75038;SDS011;63609;49.992;14.512;2022-11-25T06:39:53;9.18;;;4.43;;
75038;SDS011;63609;49.992;14.512;2022-11-25T06:42:20;8.20;;;4.25;;
75038;SDS011;63609;49.992;14.512;2022-11-25T06:47:13;7.65;;;4.00;;
75038;SDS011;63609;49.992;14.512;2022-11-25T06:49:43;11.43;;;5.55;;
75038;SDS011;63609;49.992;14.512;2022-11-25T06:52:11;10.52;;;5.13;;
75038;SDS011;63609;49.992;14.512;2022-11-25T06:54:38;11.35;;;4.88;;
75038;SDS011;63609;49.992;14.512;2022-11-25T06:57:07;12.55;;;5.90;;
75038;SDS011;63609;49.992;14.512;2022-11-25T06:59:34;11.90;;;4.75;;
75038;SDS011;63609;49.992;14.512;2022-11-25T07:02:01;14.63;;;6.10;;
75038;SDS011;63609;49.992;14.512;2022-11-25T07:04:29;12.43;;;6.13;;
75038;SDS011;63609;49.992;14.512;2022-11-25T07:06:56;14.32;;;6.15;;
75038;SDS011;63609;49.992;14.512;2022-11-25T07:09:22;12.55;;;5.50;;
75038;SDS011;63609;49.992;14.512;2022-11-25T07:11:50;13.05;;;6.18;;
75038;SDS011;63609;49.992;14.512;2022-11-25T07:16:44;12.50;;;5.15;;
75038;SDS011;63609;49.992;14.512;2022-11-25T07:19:12;11.85;;;5.90;;
75038;SDS011;63609;49.992;14.512;2022-11-25T07:21:41;13.90;;;5.88;;
75038;SDS011;63609;49.992;14.512;2022-11-25T07:24:11;10.85;;;5.25;;
75038;SDS011;63609;49.992;14.512;2022-11-25T07:26:41;10.57;;;5.28;;
75038;SDS011;63609;49.992;14.512;2022-11-25T07:29:10;12.90;;;5.63;;
75038;SDS011;63609;49.992;14.512;2022-11-25T07:32:00;9.77;;;5.03;;
75038;SDS011;63609;49.992;14.512;2022-11-25T07:34:35;13.02;;;5.25;;
75038;SDS011;63609;49.992;14.512;2022-11-25T07:37:02;15.55;;;5.25;;
75038;SDS011;63609;49.992;14.512;2022-11-25T07:39:31;10.30;;;5.13;;
75038;SDS011;63609;49.992;14.512;2022-11-25T07:44:25;11.57;;;4.88;;
75038;SDS011;63609;49.992;14.512;2022-11-25T07:46:59;15.52;;;6.40;;
75038;SDS011;63609;49.992;14.512;2022-11-25T07:51:53;8.00;;;4.22;;
75038;SDS011;63609;49.992;14.512;2022-11-25T07:54:25;9.57;;;4.43;;
75038;SDS011;63609;49.992;14.512;2022-11-25T07:56:52;14.02;;;5.93;;
75038;SDS011;63609;49.992;14.512;2022-11-25T07:59:20;8.77;;;4.38;;
75038;SDS011;63609;49.992;14.512;2022-11-25T08:01:48;14.23;;;5.68;;
75038;SDS011;63609;49.992;14.512;2022-11-25T08:04:17;11.90;;;4.97;;
75038;SDS011;63609;49.992;14.512;2022-11-25T08:06:47;10.32;;;4.60;;
75038;SDS011;63609;49.992;14.512;2022-11-25T08:09:16;14.18;;;5.95;;
75038;SDS011;63609;49.992;14.512;2022-11-25T08:11:46;14.52;;;5.97;;
75038;SDS011;63609;49.992;14.512;2022-11-25T08:14:13;11.57;;;5.88;;
75038;SDS011;63609;49.992;14.512;2022-11-25T08:16:41;12.68;;;4.95;;
75038;SDS011;63609;49.992;14.512;2022-11-25T08:19:09;16.38;;;7.25;;
75038;SDS011;63609;49.992;14.512;2022-11-25T08:21:39;11.68;;;5.88;;
75038;SDS011;63609;49.992;14.512;2022-11-25T08:24:06;10.93;;;4.60;;
75038;SDS011;63609;49.992;14.512;2022-11-25T08:29:03;12.40;;;5.55;;
75038;SDS011;63609;49.992;14.512;2022-11-25T08:31:33;13.82;;;5.68;;
75038;SDS011;63609;49.992;14.512;2022-11-25T08:34:05;14.48;;;4.72;;
75038;SDS011;63609;49.992;14.512;2022-11-25T08:36:34;20.05;;;7.22;;
75038;SDS011;63609;49.992;14.512;2022-11-25T08:39:04;11.88;;;4.95;;
75038;SDS011;63609;49.992;14.512;2022-11-25T08:41:52;12.73;;;5.18;;
75038;SDS011;63609;49.992;14.512;2022-11-25T08:44:19;22.45;;;7.18;;
75038;SDS011;63609;49.992;14.512;2022-11-25T08:49:12;14.88;;;4.50;;
75038;SDS011;63609;49.992;14.512;2022-11-25T08:51:42;17.85;;;6.28;;
75038;SDS011;63609;49.992;14.512;2022-11-25T08:54:09;12.15;;;5.22;;
75038;SDS011;63609;49.992;14.512;2022-11-25T08:59:02;19.95;;;6.18;;
75038;SDS011;63609;49.992;14.512;2022-11-25T09:01:29;10.95;;;4.97;;
75038;SDS011;63609;49.992;14.512;2022-11-25T09:03:56;17.45;;;7.45;;
75038;SDS011;63609;49.992;14.512;2022-11-25T09:06:24;18.25;;;7.30;;
75038;SDS011;63609;49.992;14.512;2022-11-25T09:08:56;16.33;;;6.03;;
75038;SDS011;63609;49.992;14.512;2022-11-25T09:11:24;18.48;;;8.00;;
75038;SDS011;63609;49.992;14.512;2022-11-25T09:13:51;27.05;;;8.50;;
75038;SDS011;63609;49.992;14.512;2022-11-25T09:16:18;20.58;;;7.47;;
75038;SDS011;63609;49.992;14.512;2022-11-25T09:18:46;17.02;;;7.35;;
75038;SDS011;63609;49.992;14.512;2022-11-25T09:21:21;16.45;;;6.70;;
75038;SDS011;63609;49.992;14.512;2022-11-25T09:23:50;13.55;;;5.60;;
75038;SDS011;63609;49.992;14.512;2022-11-25T09:26:23;14.05;;;6.07;;
75038;SDS011;63609;49.992;14.512;2022-11-25T09:28:51;15.93;;;5.70;;
75038;SDS011;63609;49.992;14.512;2022-11-25T09:31:19;15.13;;;5.20;;
75038;SDS011;63609;49.992;14.512;2022-11-25T09:33:47;17.25;;;6.03;;
75038;SDS011;63609;49.992;14.512;2022-11-25T09:36:15;15.35;;;4.88;;
75038;SDS011;63609;49.992;14.512;2022-11-25T09:38:43;17.50;;;5.85;;
75038;SDS011;63609;49.992;14.512;2022-11-25T09:53:44;21.55;;;4.57;;
75038;SDS011;63609;49.992;14.512;2022-11-25T09:58:55;13.88;;;5.57;;
75038;SDS011;63609;49.992;14.512;2022-11-25T10:01:25;16.17;;;5.88;;
75038;SDS011;63609;49.992;14.512;2022-11-25T10:04:05;14.48;;;6.18;;
75038;SDS011;63609;49.992;14.512;2022-11-25T10:06:41;16.83;;;5.70;;
75038;SDS011;63609;49.992;14.512;2022-11-25T10:09:22;17.35;;;6.53;;
75038;SDS011;63609;49.992;14.512;2022-11-25T10:11:53;21.90;;;6.80;;
75038;SDS011;63609;49.992;14.512;2022-11-25T10:24:59;18.67;;;6.03;;
75038;SDS011;63609;49.992;14.512;2022-11-25T10:30:20;15.80;;;6.72;;
75038;SDS011;63609;49.992;14.512;2022-11-25T10:35:39;15.25;;;6.68;;
75038;SDS011;63609;49.992;14.512;2022-11-25T10:38:12;18.05;;;5.65;;
75038;SDS011;63609;49.992;14.512;2022-11-25T10:40:46;19.05;;;7.78;;
75038;SDS011;63609;49.992;14.512;2022-11-25T10:43:15;16.55;;;6.22;;
75038;SDS011;63609;49.992;14.512;2022-11-25T10:45:54;18.52;;;7.22;;
75038;SDS011;63609;49.992;14.512;2022-11-25T10:51:46;14.38;;;5.57;;
75038;SDS011;63609;49.992;14.512;2022-11-25T10:57:02;19.80;;;7.82;;
75038;SDS011;63609;49.992;14.512;2022-11-25T10:59:52;18.85;;;7.88;;
75038;SDS011;63609;49.992;14.512;2022-11-25T11:02:29;15.10;;;5.95;;
75038;SDS011;63609;49.992;14.512;2022-11-25T11:05:00;19.48;;;8.02;;
75038;SDS011;63609;49.992;14.512;2022-11-25T11:07:43;18.25;;;7.68;;
75038;SDS011;63609;49.992;14.512;2022-11-25T11:12:49;15.93;;;7.05;;
75038;SDS011;63609;49.992;14.512;2022-11-25T11:17:48;18.73;;;7.38;;
75038;SDS011;63609;49.992;14.512;2022-11-25T11:27:48;14.27;;;6.95;;
75038;SDS011;63609;49.992;14.512;2022-11-25T11:33:35;14.50;;;6.28;;
75038;SDS011;63609;49.992;14.512;2022-11-25T11:41:28;14.90;;;6.22;;
75038;SDS011;63609;49.992;14.512;2022-11-25T11:44:11;15.82;;;6.20;;
75038;SDS011;63609;49.992;14.512;2022-11-25T11:46:52;16.25;;;6.80;;
75038;SDS011;63609;49.992;14.512;2022-11-25T12:00:28;18.60;;;8.40;;
75038;SDS011;63609;49.992;14.512;2022-11-25T12:05:44;11.93;;;5.75;;
75038;SDS011;63609;49.992;14.512;2022-11-25T12:08:22;19.25;;;6.97;;
75038;SDS011;63609;49.992;14.512;2022-11-25T12:10:55;13.35;;;5.82;;
75038;SDS011;63609;49.992;14.512;2022-11-25T12:13:49;15.18;;;7.28;;
75038;SDS011;63609;49.992;14.512;2022-11-25T12:16:30;18.02;;;6.57;;
75038;SDS011;63609;49.992;14.512;2022-11-25T12:19:16;14.93;;;6.43;;
75038;SDS011;63609;49.992;14.512;2022-11-25T12:27:11;15.90;;;6.95;;
75038;SDS011;63609;49.992;14.512;2022-11-25T12:29:51;18.08;;;7.55;;
75038;SDS011;63609;49.992;14.512;2022-11-25T12:43:06;16.85;;;6.90;;
75038;SDS011;63609;49.992;14.512;2022-11-25T12:45:43;20.63;;;8.75;;
75038;SDS011;63609;49.992;14.512;2022-11-25T12:48:15;24.23;;;9.25;;
75038;SDS011;63609;49.992;14.512;2022-11-25T12:53:39;18.02;;;7.80;;
75038;SDS011;63609;49.992;14.512;2022-11-25T12:56:39;13.00;;;6.78;;
75038;SDS011;63609;49.992;14.512;2022-11-25T13:08:01;16.15;;;7.53;;
75038;SDS011;63609;49.992;14.512;2022-11-25T13:11:03;14.02;;;7.00;;
75038;SDS011;63609;49.992;14.512;2022-11-25T13:16:35;13.80;;;6.13;;
75038;SDS011;63609;49.992;14.512;2022-11-25T13:19:07;15.80;;;5.53;;
75038;SDS011;63609;49.992;14.512;2022-11-25T13:21:54;10.20;;;3.95;;
75038;SDS011;63609;49.992;14.512;2022-11-25T13:24:33;11.35;;;4.70;;
75038;SDS011;63609;49.992;14.512;2022-11-25T13:27:04;11.32;;;4.82;;
75038;SDS011;63609;49.992;14.512;2022-11-25T13:29:52;13.40;;;5.10;;
75038;SDS011;63609;49.992;14.512;2022-11-25T13:32:24;6.13;;;3.25;;
75038;SDS011;63609;49.992;14.512;2022-11-25T13:35:28;7.88;;;4.15;;
75038;SDS011;63609;49.992;14.512;2022-11-25T13:37:47;11.02;;;4.68;;
75038;SDS011;63609;49.992;14.512;2022-11-25T13:40:19;7.85;;;3.97;;
75038;SDS011;63609;49.992;14.512;2022-11-25T13:42:46;11.73;;;5.40;;
75038;SDS011;63609;49.992;14.512;2022-11-25T13:48:33;11.48;;;4.82;;
75038;SDS011;63609;49.992;14.512;2022-11-25T13:51:37;8.35;;;4.78;;
75038;SDS011;63609;49.992;14.512;2022-11-25T13:53:53;9.55;;;4.60;;
75038;SDS011;63609;49.992;14.512;2022-11-25T13:56:31;10.70;;;4.80;;
75038;SDS011;63609;49.992;14.512;2022-11-25T14:01:37;9.27;;;4.97;;
75038;SDS011;63609;49.992;14.512;2022-11-25T14:04:42;10.63;;;4.90;;
75038;SDS011;63609;49.992;14.512;2022-11-25T14:07:26;10.73;;;4.72;;
75038;SDS011;63609;49.992;14.512;2022-11-25T14:13:37;10.55;;;5.30;;
75038;SDS011;63609;49.992;14.512;2022-11-25T14:26:56;12.60;;;5.90;;
75038;SDS011;63609;49.992;14.512;2022-11-25T14:32:02;12.23;;;6.90;;
75038;SDS011;63609;49.992;14.512;2022-11-25T14:34:41;12.82;;;6.25;;
75038;SDS011;63609;49.992;14.512;2022-11-25T14:40:03;11.85;;;6.20;;
75038;SDS011;63609;49.992;14.512;2022-11-25T14:42:34;15.20;;;6.80;;
75038;SDS011;63609;49.992;14.512;2022-11-25T14:47:45;14.10;;;6.32;;
75038;SDS011;63609;49.992;14.512;2022-11-25T14:50:12;16.75;;;7.32;;
75038;SDS011;63609;49.992;14.512;2022-11-25T14:53:04;13.55;;;6.82;;
75038;SDS011;63609;49.992;14.512;2022-11-25T14:55:33;18.15;;;8.27;;
75038;SDS011;63609;49.992;14.512;2022-11-25T14:58:01;13.60;;;7.82;;
75038;SDS011;63609;49.992;14.512;2022-11-25T15:00:30;14.63;;;7.80;;
75038;SDS011;63609;49.992;14.512;2022-11-25T15:02:59;15.30;;;7.40;;
75038;SDS011;63609;49.992;14.512;2022-11-25T15:08:01;15.25;;;7.45;;
75038;SDS011;63609;49.992;14.512;2022-11-25T15:15:52;18.40;;;7.93;;
75038;SDS011;63609;49.992;14.512;2022-11-25T15:18:21;14.73;;;7.50;;
75038;SDS011;63609;49.992;14.512;2022-11-25T15:20:54;17.95;;;8.25;;
75038;SDS011;63609;49.992;14.512;2022-11-25T15:23:30;18.30;;;7.93;;
75038;SDS011;63609;49.992;14.512;2022-11-25T15:26:02;16.45;;;7.90;;
75038;SDS011;63609;49.992;14.512;2022-11-25T15:28:34;22.83;;;8.55;;
75038;SDS011;63609;49.992;14.512;2022-11-25T15:31:09;18.45;;;8.60;;
75038;SDS011;63609;49.992;14.512;2022-11-25T15:33:53;17.45;;;8.98;;
75038;SDS011;63609;49.992;14.512;2022-11-25T15:36:25;19.88;;;8.80;;
75038;SDS011;63609;49.992;14.512;2022-11-25T15:38:53;17.65;;;7.85;;
75038;SDS011;63609;49.992;14.512;2022-11-25T15:43:51;15.27;;;7.88;;
75038;SDS011;63609;49.992;14.512;2022-11-25T15:46:22;14.95;;;7.50;;
75038;SDS011;63609;49.992;14.512;2022-11-25T15:48:51;18.25;;;8.55;;
75038;SDS011;63609;49.992;14.512;2022-11-25T15:54:20;12.70;;;7.53;;
75038;SDS011;63609;49.992;14.512;2022-11-25T15:56:48;17.42;;;8.10;;
75038;SDS011;63609;49.992;14.512;2022-11-25T16:02:36;14.80;;;7.93;;
75038;SDS011;63609;49.992;14.512;2022-11-25T16:13:20;23.40;;;9.63;;
75038;SDS011;63609;49.992;14.512;2022-11-25T16:15:59;19.83;;;9.52;;
75038;SDS011;63609;49.992;14.512;2022-11-25T16:21:57;19.50;;;9.57;;
75038;SDS011;63609;49.992;14.512;2022-11-25T16:24:38;19.67;;;9.90;;
75038;SDS011;63609;49.992;14.512;2022-11-25T16:29:56;18.30;;;8.18;;
75038;SDS011;63609;49.992;14.512;2022-11-25T16:32:41;19.88;;;8.93;;
75038;SDS011;63609;49.992;14.512;2022-11-25T16:35:11;19.55;;;9.20;;
75038;SDS011;63609;49.992;14.512;2022-11-25T16:37:40;22.58;;;10.07;;
75038;SDS011;63609;49.992;14.512;2022-11-25T16:40:15;19.23;;;9.55;;
75038;SDS011;63609;49.992;14.512;2022-11-25T16:42:46;20.77;;;10.52;;
75038;SDS011;63609;49.992;14.512;2022-11-25T16:47:52;24.00;;;10.93;;
75038;SDS011;63609;49.992;14.512;2022-11-25T16:50:20;26.40;;;12.82;;
75038;SDS011;63609;49.992;14.512;2022-11-25T16:52:47;23.63;;;11.35;;
75038;SDS011;63609;49.992;14.512;2022-11-25T16:55:15;22.60;;;11.05;;
75038;SDS011;63609;49.992;14.512;2022-11-25T16:57:44;29.15;;;13.07;;
75038;SDS011;63609;49.992;14.512;2022-11-25T17:00:13;25.65;;;12.05;;
75038;SDS011;63609;49.992;14.512;2022-11-25T17:02:42;22.50;;;12.23;;
75038;SDS011;63609;49.992;14.512;2022-11-25T17:05:18;25.58;;;11.93;;
75038;SDS011;63609;49.992;14.512;2022-11-25T17:07:55;22.85;;;12.32;;
75038;SDS011;63609;49.992;14.512;2022-11-25T17:10:22;23.08;;;12.13;;
75038;SDS011;63609;49.992;14.512;2022-11-25T17:12:48;25.70;;;13.15;;
75038;SDS011;63609;49.992;14.512;2022-11-25T17:15:20;31.38;;;13.35;;
75038;SDS011;63609;49.992;14.512;2022-11-25T17:17:53;27.92;;;13.18;;
75038;SDS011;63609;49.992;14.512;2022-11-25T17:20:21;26.83;;;13.27;;
75038;SDS011;63609;49.992;14.512;2022-11-25T17:22:51;27.13;;;13.45;;
75038;SDS011;63609;49.992;14.512;2022-11-25T17:25:19;28.38;;;13.65;;
75038;SDS011;63609;49.992;14.512;2022-11-25T17:27:47;31.38;;;14.07;;
75038;SDS011;63609;49.992;14.512;2022-11-25T17:30:19;31.00;;;14.95;;
75038;SDS011;63609;49.992;14.512;2022-11-25T17:32:51;38.38;;;17.77;;
75038;SDS011;63609;49.992;14.512;2022-11-25T17:35:29;36.42;;;17.33;;
75038;SDS011;63609;49.992;14.512;2022-11-25T17:37:58;37.83;;;17.98;;
75038;SDS011;63609;49.992;14.512;2022-11-25T17:40:25;40.22;;;17.40;;
75038;SDS011;63609;49.992;14.512;2022-11-25T17:42:52;37.72;;;17.52;;
75038;SDS011;63609;49.992;14.512;2022-11-25T17:47:46;33.00;;;16.35;;
75038;SDS011;63609;49.992;14.512;2022-11-25T17:50:18;36.33;;;15.60;;
75038;SDS011;63609;49.992;14.512;2022-11-25T17:52:49;30.65;;;16.10;;
75038;SDS011;63609;49.992;14.512;2022-11-25T17:55:17;30.65;;;16.15;;
75038;SDS011;63609;49.992;14.512;2022-11-25T17:57:46;36.35;;;17.17;;
75038;SDS011;63609;49.992;14.512;2022-11-25T18:00:14;33.15;;;15.18;;
75038;SDS011;63609;49.992;14.512;2022-11-25T18:02:43;36.42;;;16.10;;
75038;SDS011;63609;49.992;14.512;2022-11-25T18:05:12;35.10;;;17.48;;
75038;SDS011;63609;49.992;14.512;2022-11-25T18:07:41;26.90;;;15.18;;
75038;SDS011;63609;49.992;14.512;2022-11-25T18:10:11;33.65;;;15.75;;
75038;SDS011;63609;49.992;14.512;2022-11-25T18:12:39;32.78;;;14.68;;
75038;SDS011;63609;49.992;14.512;2022-11-25T18:15:09;30.33;;;15.02;;
75038;SDS011;63609;49.992;14.512;2022-11-25T18:17:41;31.23;;;16.17;;
75038;SDS011;63609;49.992;14.512;2022-11-25T18:22:52;31.20;;;14.98;;
75038;SDS011;63609;49.992;14.512;2022-11-25T18:25:22;38.22;;;15.73;;
75038;SDS011;63609;49.992;14.512;2022-11-25T18:27:51;34.83;;;16.05;;
75038;SDS011;63609;49.992;14.512;2022-11-25T18:30:23;36.45;;;15.60;;
75038;SDS011;63609;49.992;14.512;2022-11-25T18:32:53;34.50;;;16.42;;